Time;durP1;ratioP1;P1;durP2;ratioP2;P2;SDS_P1;SDS_P2;PMS_P1;PMS_P2;Temp;Humidity;BMP_temperature;BMP_pressure;BME280_temperature;BME280_humidity;BME280_pressure;Samples;Min_cycle;Max_cycle;Signal;HPM_P1;HPM_P2
2022/04/30 00:00:51;;;;;;;13.97;12.83;;;;;;;11.51;81.01;93224.78;5077745;28;20228;-80
2022/04/30 00:03:17;;;;;;;13.87;12.77;;;;;;;11.36;81.70;93223.03;5079393;28;20237;-81
2022/04/30 00:05:42;;;;;;;13.53;12.33;;;;;;;11.48;81.03;93225.31;5079592;28;20200;-81
2022/04/30 00:08:09;;;;;;;12.50;11.50;;;;;;;11.45;80.23;93204.94;5080781;28;20185;-81
2022/04/30 00:10:37;;;;;;;13.70;12.77;;;;;;;11.32;79.81;93188.78;5075493;28;20248;-80
2022/04/30 00:13:08;;;;;;;14.17;12.83;;;;;;;11.20;80.25;93183.09;5081238;28;20211;-81
2022/04/30 00:15:34;;;;;;;13.00;11.90;;;;;;;11.30;79.75;93197.94;5079475;28;20195;-81
2022/04/30 00:18:00;;;;;;;13.30;12.20;;;;;;;11.22;80.18;93211.56;5080213;28;20212;-81
2022/04/30 00:20:25;;;;;;;13.93;12.73;;;;;;;11.30;80.48;93214.41;5078698;28;20199;-80
2022/04/30 00:22:51;;;;;;;14.20;12.93;;;;;;;11.17;80.57;93209.72;5077669;28;20246;-81
2022/04/30 00:25:17;;;;;;;13.00;12.00;;;;;;;11.01;80.13;93176.88;5078546;28;20190;-81
2022/04/30 00:27:42;;;;;;;14.10;12.80;;;;;;;11.13;79.70;93187.81;5080137;28;20231;-81
2022/04/30 00:30:09;;;;;;;13.50;12.30;;;;;;;11.25;79.65;93211.03;5078425;28;20178;-81
2022/04/30 00:32:34;;;;;;;12.83;11.63;;;;;;;11.26;79.57;93208.16;5080330;28;20240;-81
2022/04/30 00:35:02;;;;;;;13.10;12.10;;;;;;;11.28;79.92;93218.34;5078056;28;20189;-81
2022/04/30 00:37:28;;;;;;;13.10;12.00;;;;;;;11.21;79.72;93192.50;5080128;28;20243;-81
2022/04/30 00:39:53;;;;;;;13.90;12.80;;;;;;;11.25;80.12;93206.56;5077967;28;20262;-81
2022/04/30 00:42:19;;;;;;;13.70;12.60;;;;;;;11.22;80.13;93214.94;5076668;28;20223;-81
2022/04/30 00:44:47;;;;;;;14.87;13.57;;;;;;;11.27;79.76;93219.38;5079117;28;20192;-81
2022/04/30 00:47:18;;;;;;;15.70;14.40;;;;;;;11.29;79.10;93212.84;5076919;28;20223;-83
2022/04/30 00:49:44;;;;;;;13.63;12.40;;;;;;;11.31;79.00;93199.50;5078922;28;20192;-80
2022/04/30 00:52:13;;;;;;;13.77;12.67;;;;;;;11.41;78.56;93209.16;5080368;28;20282;-81
2022/04/30 00:54:40;;;;;;;13.50;12.30;;;;;;;11.44;78.43;93209.38;5080011;28;20207;-81
2022/04/30 00:57:11;;;;;;;14.00;12.70;;;;;;;11.50;78.05;93204.91;5077942;28;20236;-81
2022/04/30 00:59:40;;;;;;;13.70;12.60;;;;;;;11.39;77.54;93189.25;5078080;28;20181;-84
2022/04/30 01:02:09;;;;;;;13.60;12.60;;;;;;;11.34;77.64;93218.06;5077569;28;20215;-84
2022/04/30 01:04:35;;;;;;;12.63;11.53;;;;;;;11.39;77.10;93202.34;5078843;28;20194;-83
2022/04/30 01:07:10;;;;;;;12.23;11.27;;;;;;;11.49;76.81;93209.34;5078764;28;20215;-84
2022/04/30 01:09:38;;;;;;;12.60;11.63;;;;;;;11.22;78.12;93201.13;5076625;28;20181;-84
2022/04/30 01:12:09;;;;;;;12.63;11.53;;;;;;;11.26;78.21;93218.63;5070052;28;20447;-84
2022/04/30 01:14:35;;;;;;;12.90;11.77;;;;;;;11.18;78.63;93200.88;5071167;28;20188;-84
2022/04/30 01:17:07;;;;;;;12.90;11.90;;;;;;;11.05;79.10;93172.69;5090526;28;20241;-84
2022/04/30 01:19:35;;;;;;;13.30;12.17;;;;;;;11.25;78.52;93205.81;5078371;28;20196;-84
2022/04/30 01:22:08;;;;;;;12.87;11.73;;;;;;;11.19;78.71;93207.66;5078387;28;20248;-84
2022/04/30 01:24:35;;;;;;;12.23;11.20;;;;;;;10.88;79.06;93171.47;5080748;28;20204;-84
2022/04/30 01:27:02;;;;;;;12.70;11.70;;;;;;;10.74;79.58;93155.53;5080157;28;20242;-84
2022/04/30 01:29:33;;;;;;;12.93;11.93;;;;;;;10.87;79.27;93182.94;5076847;28;20249;-84
2022/04/30 01:37:29;;;;;;;12.70;11.70;;;;;;;10.66;80.98;93195.25;5078325;28;20254;-83
2022/04/30 01:40:00;;;;;;;13.17;12.17;;;;;;;10.48;80.92;93169.72;5079715;28;20188;-84
2022/04/30 01:42:29;;;;;;;12.90;11.97;;;;;;;10.59;80.83;93192.16;5078485;28;20287;-84
2022/04/30 01:44:56;;;;;;;11.97;11.07;;;;;;;10.64;80.42;93193.97;5075816;28;20186;-84
2022/04/30 01:47:23;;;;;;;12.87;11.57;;;;;;;10.39;81.61;93167.88;5075933;28;20234;-84
2022/04/30 01:49:49;;;;;;;12.93;11.77;;;;;;;10.40;81.86;93165.03;5076252;28;20276;-83
2022/04/30 01:52:15;;;;;;;12.53;11.63;;;;;;;10.50;81.21;93172.84;5077628;28;20296;-84
2022/04/30 01:54:41;;;;;;;12.10;11.27;;;;;;;10.43;81.73;93172.31;5077780;28;20194;-84
2022/04/30 01:57:06;;;;;;;13.40;12.27;;;;;;;10.56;81.75;93181.44;5076795;28;20236;-84
2022/04/30 01:59:32;;;;;;;14.93;13.60;;;;;;;10.73;80.90;93181.94;5080095;28;20209;-83
2022/04/30 02:01:59;;;;;;;13.70;12.70;;;;;;;10.65;81.89;93195.50;5077689;28;20233;-84
2022/04/30 02:04:26;;;;;;;13.83;12.70;;;;;;;10.54;82.01;93183.53;5077084;28;20205;-83
2022/04/30 02:06:51;;;;;;;14.10;12.83;;;;;;;10.53;82.62;93189.78;5079067;28;20229;-84
2022/04/30 02:09:18;;;;;;;12.63;11.63;;;;;;;10.58;82.41;93185.38;5080443;28;20197;-84
2022/04/30 02:11:44;;;;;;;13.90;12.70;;;;;;;10.58;82.56;93182.75;5081624;28;20727;-81
2022/04/30 02:14:15;;;;;;;13.27;12.13;;;;;;;10.61;82.59;93184.03;5096313;28;20177;-81
2022/04/30 02:16:42;;;;;;;14.97;13.70;;;;;;;10.69;82.49;93197.34;5077495;28;20228;-81
2022/04/30 02:19:09;;;;;;;13.90;12.70;;;;;;;10.56;82.46;93197.09;5080392;28;20189;-81
2022/04/30 02:21:35;;;;;;;14.23;13.00;;;;;;;10.33;82.87;93166.34;5079050;28;20233;-81
2022/04/30 02:24:02;;;;;;;14.50;13.17;;;;;;;10.47;83.26;93177.81;5082524;28;20190;-82
2022/04/30 02:26:28;;;;;;;15.73;14.13;;;;;;;10.64;83.15;93197.38;5081832;28;20237;-82
2022/04/30 02:28:56;;;;;;;14.90;13.60;;;;;;;10.73;82.91;93187.94;5083481;28;21110;-80
2022/04/30 02:31:25;;;;;;;15.57;13.50;;;;;;;10.70;83.17;93187.69;5080502;28;20240;-81
2022/04/30 02:33:56;;;;;;;15.60;13.50;;;;;;;10.74;83.07;93180.91;5081840;28;20216;-81
2022/04/30 02:36:30;;;;;;;15.33;13.77;;;;;;;10.56;83.38;93181.44;5080704;28;20228;-81
2022/04/30 02:38:57;;;;;;;15.73;14.23;;;;;;;10.60;82.89;93178.03;5080389;28;20226;-82
2022/04/30 02:41:23;;;;;;;13.13;11.83;;;;;;;10.57;82.31;93183.78;5080203;28;20222;-82
2022/04/30 02:43:52;;;;;;;13.67;12.40;;;;;;;10.46;82.83;93177.00;5083092;28;20236;-81
2022/04/30 02:46:21;;;;;;;12.83;11.93;;;;;;;10.41;82.10;93174.41;5081486;28;20225;-82
2022/04/30 02:48:48;;;;;;;13.53;12.50;;;;;;;10.40;81.15;93178.06;5080524;28;20189;-81
2022/04/30 02:51:17;;;;;;;13.07;11.83;;;;;;;10.37;80.91;93181.22;5079877;28;20228;-82
2022/04/30 02:53:44;;;;;;;14.00;12.97;;;;;;;10.36;80.72;93186.69;5081223;28;20190;-84
2022/04/30 02:56:10;;;;;;;12.27;11.27;;;;;;;10.36;80.76;93179.66;5083089;28;20267;-81
2022/04/30 03:01:20;;;;;;;11.97;11.00;;;;;;;10.37;79.81;93183.81;5079886;28;20299;-80
2022/04/30 03:03:50;;;;;;;14.40;13.00;;;;;;;10.26;80.95;93165.81;5081372;28;20248;-81
2022/04/30 03:06:17;;;;;;;14.30;13.07;;;;;;;10.24;80.75;93179.13;5083116;28;20307;-81
2022/04/30 03:08:46;;;;;;;13.50;12.17;;;;;;;10.27;79.87;93172.59;5079673;28;20218;-81
2022/04/30 03:11:12;;;;;;;12.30;11.33;;;;;;;10.19;79.83;93160.88;5079939;28;20244;-83
2022/04/30 03:13:38;;;;;;;13.30;12.23;;;;;;;10.23;79.57;93155.91;5081171;28;20199;-81
2022/04/30 03:21:44;;;;;;;12.97;11.97;;;;;;;10.36;79.38;93145.72;5059478;28;20230;-81
2022/04/30 03:24:18;;;;;;;14.53;13.33;;;;;;;10.49;79.50;93166.03;5079520;28;20177;-81
2022/04/30 03:26:47;;;;;;;13.13;12.13;;;;;;;10.27;79.32;93149.91;5082997;28;20225;-82
2022/04/30 03:29:14;;;;;;;13.00;12.00;;;;;;;10.42;79.61;93165.53;5077879;28;20261;-82
2022/04/30 03:31:41;;;;;;;13.37;12.23;;;;;;;10.46;79.27;93174.41;5080536;28;20269;-82
2022/04/30 03:34:08;;;;;;;12.70;11.70;;;;;;;10.34;79.47;93168.69;5080299;28;20187;-82
2022/04/30 03:36:34;;;;;;;12.83;11.50;;;;;;;10.15;79.35;93127.75;5076950;28;20232;-81
2022/04/30 03:39:00;;;;;;;13.80;11.60;;;;;;;10.41;79.17;93169.19;5081181;28;20192;-81
2022/04/30 03:41:25;;;;;;;12.87;11.90;;;;;;;10.53;79.06;93176.75;5080195;28;20236;-82
2022/04/30 03:43:51;;;;;;;12.83;11.83;;;;;;;10.49;79.17;93166.03;5079545;28;20248;-81
2022/04/30 03:46:17;;;;;;;12.53;11.53;;;;;;;10.62;79.23;93186.41;5076656;28;20229;-80
2022/04/30 03:48:43;;;;;;;12.60;11.60;;;;;;;10.45;79.04;93144.13;5078942;28;20219;-81
2022/04/30 03:51:09;;;;;;;13.67;12.47;;;;;;;10.82;78.75;93183.72;5077423;28;20289;-81
2022/04/30 03:53:34;;;;;;;13.57;12.37;;;;;;;10.81;78.53;93168.31;5079633;28;20187;-81
2022/04/30 03:56:00;;;;;;;13.83;12.73;;;;;;;10.97;78.61;93191.50;5076506;28;20235;-83
2022/04/30 03:58:26;;;;;;;14.20;12.80;;;;;;;11.06;78.16;93192.56;5078711;28;20232;-81
2022/04/30 04:00:53;;;;;;;15.53;13.93;;;;;;;10.93;78.50;93195.72;5077360;28;20287;-81
2022/04/30 04:03:20;;;;;;;14.37;13.17;;;;;;;10.84;79.28;93199.13;5078023;28;20255;-81
2022/04/30 04:05:47;;;;;;;14.87;13.63;;;;;;;10.91;79.21;93197.03;5079745;28;20190;-81
2022/04/30 04:08:14;;;;;;;14.40;12.80;;;;;;;10.86;79.39;93192.59;5079280;28;20196;-82
2022/04/30 04:10:41;;;;;;;14.70;13.40;;;;;;;10.87;79.91;93188.94;5080474;28;20185;-81
2022/04/30 04:18:35;;;;;;;14.47;13.07;;;;;;;10.83;79.47;93135.66;5074410;28;20229;-78
2022/04/30 04:21:02;;;;;;;16.10;14.60;;;;;;;11.16;78.87;93170.81;5078827;28;20258;-79
2022/04/30 04:23:28;;;;;;;13.93;12.70;;;;;;;11.23;78.16;93153.81;5078512;28;20206;-78
2022/04/30 04:26:00;;;;;;;15.63;14.13;;;;;;;11.46;77.77;93175.09;5078795;28;20248;-78
2022/04/30 04:28:26;;;;;;;15.10;13.47;;;;;;;11.59;77.45;93182.38;5079325;28;20181;-79
2022/04/30 04:30:52;;;;;;;15.23;13.87;;;;;;;11.63;77.46;93176.34;5075794;28;20223;-79
2022/04/30 04:33:17;;;;;;;15.33;13.80;;;;;;;11.77;75.84;93182.56;5078476;28;20208;-78
2022/04/30 04:35:43;;;;;;;15.00;13.63;;;;;;;11.74;75.83;93195.38;5076434;28;20181;-81
2022/04/30 04:38:08;;;;;;;14.43;13.10;;;;;;;11.72;75.00;93185.19;5072817;28;20209;-84
2022/04/30 04:40:35;;;;;;;14.37;13.10;;;;;;;11.72;75.44;93203.50;5077157;28;20188;-82
2022/04/30 04:43:00;;;;;;;15.30;13.80;;;;;;;11.71;75.61;93203.78;5078231;28;20199;-77
2022/04/30 04:45:27;;;;;;;15.00;13.67;;;;;;;11.54;75.10;93166.69;5077603;28;20193;-90
2022/04/30 04:47:53;;;;;;;17.10;15.37;;;;;;;11.79;75.37;93200.59;5076907;28;20224;-77
2022/04/30 04:50:18;;;;;;;16.30;14.70;;;;;;;12.08;74.83;93217.13;5079182;28;20192;-82
2022/04/30 04:52:46;;;;;;;15.93;14.37;;;;;;;12.02;74.08;93210.38;5079985;28;20343;-86
2022/04/30 04:55:12;;;;;;;16.00;14.53;;;;;;;12.09;74.61;93216.91;5076434;28;20190;-77
2022/04/30 04:57:38;;;;;;;15.77;14.30;;;;;;;12.04;74.65;93218.75;5078465;28;20268;-85
2022/04/30 05:00:07;;;;;;;15.70;14.20;;;;;;;12.02;73.66;93202.53;5077644;28;20210;-79
2022/04/30 05:02:32;;;;;;;16.23;14.70;;;;;;;12.30;72.92;93207.03;5079162;28;20275;-82
2022/04/30 05:04:58;;;;;;;16.20;14.50;;;;;;;12.24;73.50;93206.31;5078660;28;20209;-81
2022/04/30 05:07:25;;;;;;;15.93;14.43;;;;;;;12.71;72.90;93224.00;5080309;28;20236;-81
2022/04/30 05:09:51;;;;;;;16.43;14.93;;;;;;;13.13;71.03;93192.66;5081333;28;20196;-85
2022/04/30 05:12:17;;;;;;;14.87;13.47;;;;;;;12.68;71.10;93225.31;5077298;28;20220;-84
2022/04/30 05:14:42;;;;;;;15.27;13.77;;;;;;;13.54;68.92;93209.47;5081452;28;20191;-85
2022/04/30 05:17:08;;;;;;;16.10;14.50;;;;;;;14.29;65.93;93226.06;5079402;28;20229;-88
2022/04/30 05:19:33;;;;;;;18.00;16.30;;;;;;;14.02;67.30;93228.53;5073840;28;20178;-81
2022/04/30 05:22:00;;;;;;;16.20;14.60;;;;;;;14.40;65.73;93230.09;5056316;28;20230;-82
2022/04/30 05:24:25;;;;;;;19.00;17.17;;;;;;;14.16;65.37;93203.88;5047500;28;20208;-83
2022/04/30 05:26:51;;;;;;;16.00;14.43;;;;;;;14.11;66.32;93219.75;5051821;28;20229;-83
2022/04/30 05:29:16;;;;;;;15.93;14.43;;;;;;;14.16;65.95;93217.03;5058866;28;20236;-85
2022/04/30 05:31:42;;;;;;;15.60;14.07;;;;;;;13.99;66.66;93226.47;5077081;28;20235;-85
2022/04/30 05:34:08;;;;;;;17.17;15.47;;;;;;;14.08;66.08;93232.66;5091275;28;20207;-81
2022/04/30 05:36:34;;;;;;;16.00;14.60;;;;;;;14.11;66.07;93238.13;5076832;28;20228;-84
2022/04/30 05:38:59;;;;;;;15.80;14.30;;;;;;;13.73;66.76;93231.28;5076779;28;20193;-81
2022/04/30 05:41:28;;;;;;;15.63;14.00;;;;;;;13.55;67.74;93232.03;5084394;28;20280;-80
2022/04/30 05:43:54;;;;;;;16.67;15.07;;;;;;;13.52;68.48;93219.47;5079164;28;20267;-88
2022/04/30 05:46:19;;;;;;;14.63;13.43;;;;;;;13.67;67.78;93227.16;5080267;28;20228;-90
2022/04/30 05:48:45;;;;;;;16.93;14.83;;;;;;;13.79;67.43;93234.63;5080554;28;20189;-90
2022/04/30 05:51:10;;;;;;;17.37;14.33;;;;;;;13.57;66.64;93176.66;5083514;28;20247;-90
2022/04/30 05:53:36;;;;;;;15.47;13.97;;;;;;;13.83;66.58;93223.28;5077500;28;20189;-88
2022/04/30 05:56:01;;;;;;;15.70;14.07;;;;;;;14.15;66.09;93231.22;5080759;28;20224;-87
2022/04/30 05:58:27;;;;;;;17.17;14.83;;;;;;;13.95;66.75;93215.75;5080706;28;20228;-86
2022/04/30 06:00:52;;;;;;;16.87;15.27;;;;;;;14.08;65.57;93199.31;5097867;28;21947;-89
2022/04/30 06:03:18;;;;;;;15.33;13.87;;;;;;;14.40;64.77;93209.88;5081618;28;20189;-90
2022/04/30 06:05:43;;;;;;;16.57;15.07;;;;;;;14.01;66.19;93200.69;5078746;28;20248;-92
2022/04/30 06:08:09;;;;;;;16.37;14.67;;;;;;;14.35;63.88;93199.44;5083638;28;20193;-88
2022/04/30 06:10:35;;;;;;;14.53;13.17;;;;;;;14.63;64.55;93257.34;5080598;28;20189;-87
2022/04/30 06:13:01;;;;;;;15.17;13.77;;;;;;;14.85;63.45;93247.75;5078739;28;20180;-88
2022/04/30 06:15:28;;;;;;;14.73;13.27;;;;;;;15.29;60.60;93176.22;5084145;28;20188;-78
2022/04/30 06:17:53;;;;;;;14.30;13.00;;;;;;;17.44;55.02;93229.28;5079516;28;20311;-87
2022/04/30 06:20:19;;;;;;;14.63;13.33;;;;;;;16.91;55.86;93246.97;5096085;28;20197;-86
2022/04/30 06:22:44;;;;;;;14.87;13.47;;;;;;;16.45;57.98;93257.00;5073521;28;20218;-83
2022/04/30 06:25:11;;;;;;;16.10;14.57;;;;;;;16.31;58.04;93247.59;5078847;28;20215;-81
2022/04/30 06:27:36;;;;;;;13.00;11.90;;;;;;;16.30;56.58;93254.69;5078509;28;20229;-83
2022/04/30 06:30:02;;;;;;;14.50;13.00;;;;;;;16.24;55.68;93239.28;5081442;28;20219;-83
2022/04/30 06:32:27;;;;;;;12.87;11.87;;;;;;;15.89;55.30;93262.69;5082500;28;20229;-83
2022/04/30 06:34:53;;;;;;;13.03;11.93;;;;;;;15.44;57.15;93253.03;5079880;28;20177;-84
2022/04/30 06:37:18;;;;;;;13.67;12.57;;;;;;;15.13;56.33;93232.84;5081196;28;20251;-84
2022/04/30 06:39:45;;;;;;;14.07;12.80;;;;;;;15.12;57.65;93236.50;5082305;28;20181;-81
2022/04/30 06:42:10;;;;;;;13.03;11.93;;;;;;;15.17;58.42;93254.84;5080663;28;20216;-79
2022/04/30 06:44:36;;;;;;;13.37;12.27;;;;;;;14.96;57.36;93238.63;5079478;28;20196;-80
2022/04/30 06:47:01;;;;;;;14.23;12.60;;;;;;;15.64;56.93;93246.63;5078070;28;20231;-84
2022/04/30 06:49:27;;;;;;;11.83;10.93;;;;;;;15.70;55.93;93248.09;5081380;28;20248;-79
2022/04/30 06:51:52;;;;;;;14.07;12.87;;;;;;;15.37;56.56;93249.22;5079551;28;20284;-81
2022/04/30 06:57:12;;;;;;;13.70;12.50;;;;;;;16.22;54.79;93234.31;5076017;28;20239;-77
2022/04/30 06:59:41;;;;;;;12.60;11.60;;;;;;;15.71;56.52;93239.09;5080526;28;20185;-80
2022/04/30 07:02:17;;;;;;;15.00;13.80;;;;;;;15.62;57.34;93254.81;5074756;28;20213;-84
2022/04/30 07:04:43;;;;;;;12.73;11.67;;;;;;;15.95;55.09;93210.69;5075437;28;20196;-83
2022/04/30 07:07:10;;;;;;;13.97;12.77;;;;;;;15.94;54.50;93253.88;5074575;28;20221;-82
2022/04/30 07:09:36;;;;;;;13.43;12.27;;;;;;;16.12;55.35;93250.38;5076768;28;20196;-84
2022/04/30 07:12:04;;;;;;;14.97;13.60;;;;;;;16.41;54.67;93249.97;5061392;28;20246;-83
2022/04/30 07:14:32;;;;;;;13.13;11.93;;;;;;;16.29;53.85;93239.97;5049685;28;20205;-82
2022/04/30 07:16:57;;;;;;;14.23;13.03;;;;;;;16.27;53.71;93239.47;5052186;28;20233;-84
2022/04/30 07:19:23;;;;;;;12.93;11.93;;;;;;;16.36;53.71;93229.78;5052444;28;20221;-81
2022/04/30 07:21:48;;;;;;;13.20;12.23;;;;;;;16.45;53.62;93248.34;5067128;28;20247;-81
2022/04/30 07:24:14;;;;;;;13.43;12.50;;;;;;;16.01;55.07;93233.22;5078565;28;20201;-81
2022/04/30 07:26:40;;;;;;;13.63;12.37;;;;;;;15.98;55.86;93246.97;5075146;28;20240;-82
2022/04/30 07:29:05;;;;;;;13.67;12.40;;;;;;;16.68;53.96;93242.00;5078797;28;20185;-84
2022/04/30 07:31:31;;;;;;;13.77;12.50;;;;;;;17.27;53.62;93257.41;5076067;28;20240;-82
2022/04/30 07:33:56;;;;;;;13.10;12.07;;;;;;;17.69;50.41;93248.13;5111173;28;20194;-81
2022/04/30 07:36:22;;;;;;;12.20;11.30;;;;;;;16.81;52.04;93257.00;5074860;28;20240;-82
2022/04/30 07:38:47;;;;;;;14.30;12.90;;;;;;;16.28;53.83;93229.72;5079171;28;20277;-82
2022/04/30 07:41:12;;;;;;;13.23;12.03;;;;;;;16.55;53.81;93242.81;5073220;28;20233;-83
2022/04/30 07:43:38;;;;;;;12.67;11.50;;;;;;;16.73;52.48;93245.28;5075438;28;20196;-84
2022/04/30 07:46:03;;;;;;;13.50;12.50;;;;;;;16.57;53.43;93230.91;5077363;28;20220;-84
2022/04/30 07:48:29;;;;;;;12.90;11.90;;;;;;;16.79;52.31;93238.03;5077123;28;20193;-86
2022/04/30 07:50:57;;;;;;;14.53;13.30;;;;;;;16.71;52.93;93221.09;5075157;28;20228;-85
2022/04/30 07:53:24;;;;;;;13.40;12.33;;;;;;;17.01;52.12;93241.44;5078214;28;20247;-82
2022/04/30 07:55:50;;;;;;;14.40;13.30;;;;;;;16.52;52.98;93215.22;5079532;28;20250;-82
2022/04/30 07:58:15;;;;;;;12.37;11.47;;;;;;;16.24;52.93;93237.44;5076048;28;20240;-82
2022/04/30 08:00:40;;;;;;;12.73;11.77;;;;;;;16.19;53.53;93234.16;5073791;28;20195;-81
2022/04/30 08:03:06;;;;;;;12.77;11.87;;;;;;;15.75;54.01;93219.03;5071832;28;20197;-84
2022/04/30 08:05:32;;;;;;;11.77;10.87;;;;;;;16.08;53.12;93231.72;5077513;28;20203;-83
2022/04/30 08:07:58;;;;;;;12.00;11.20;;;;;;;16.15;52.66;93191.03;5078122;28;20205;-84
2022/04/30 08:10:24;;;;;;;13.03;12.00;;;;;;;15.70;51.93;93150.69;5077779;28;20191;-82
2022/04/30 08:12:54;;;;;;;13.17;12.23;;;;;;;16.22;53.02;93231.69;5075295;28;20236;-83
2022/04/30 08:15:21;;;;;;;12.47;11.43;;;;;;;16.24;52.56;93234.81;5077927;28;20208;-85
2022/04/30 08:17:46;;;;;;;13.80;12.50;;;;;;;16.62;49.93;93233.44;5077764;28;20774;-85
2022/04/30 08:20:12;;;;;;;12.30;11.40;;;;;;;16.32;52.09;93213.03;5078633;28;20177;-85
2022/04/30 08:22:38;;;;;;;12.47;11.47;;;;;;;16.13;51.99;93220.28;5073997;28;20254;-84
2022/04/30 08:25:04;;;;;;;13.10;12.10;;;;;;;16.30;52.23;93209.09;5078243;28;20211;-82
2022/04/30 08:27:30;;;;;;;12.53;11.60;;;;;;;16.72;50.78;93233.19;5059827;28;20793;-83
2022/04/30 08:29:55;;;;;;;12.50;11.60;;;;;;;16.68;52.38;93226.97;5055116;28;20178;-83
2022/04/30 08:32:27;;;;;;;13.03;12.00;;;;;;;16.69;51.00;93215.34;5070473;28;20224;-84
2022/04/30 08:34:53;;;;;;;13.53;12.53;;;;;;;16.70;51.98;93227.44;5074601;28;20196;-77
2022/04/30 08:37:18;;;;;;;13.50;12.40;;;;;;;17.05;50.82;93217.88;5076335;28;20224;-76
2022/04/30 08:39:44;;;;;;;13.67;12.57;;;;;;;16.48;50.53;93226.66;5073629;28;20344;-72
2022/04/30 08:42:12;;;;;;;13.33;12.23;;;;;;;16.03;52.09;93223.94;5075693;28;20228;-75
2022/04/30 08:44:38;;;;;;;13.03;12.03;;;;;;;16.09;51.87;93222.75;5076460;28;20193;-87
2022/04/30 08:47:05;;;;;;;18.33;16.63;;;;;;;16.42;51.32;93209.38;5058949;28;20217;-92
2022/04/30 08:49:31;;;;;;;14.97;13.63;;;;;;;16.90;49.22;93218.25;5048435;28;20224;-87
2022/04/30 08:51:57;;;;;;;12.17;11.27;;;;;;;16.64;50.71;93210.19;5052246;28;20237;-86
2022/04/30 08:54:22;;;;;;;15.57;14.27;;;;;;;16.96;49.13;93228.38;5055298;28;20241;-83
2022/04/30 08:56:55;;;;;;;13.07;11.90;;;;;;;16.82;50.72;93219.78;5063613;28;20331;-86
2022/04/30 08:59:21;;;;;;;12.30;11.40;;;;;;;17.10;48.65;93226.44;5076472;28;20261;-84
2022/04/30 09:01:49;;;;;;;11.93;11.17;;;;;;;17.17;47.04;93223.34;5071883;28;20213;-87
2022/04/30 09:04:15;;;;;;;13.20;12.10;;;;;;;17.35;47.18;93191.44;5075813;28;20207;-78
2022/04/30 09:06:49;;;;;;;14.00;12.87;;;;;;;18.05;45.71;93206.41;5073082;28;20221;-79
2022/04/30 09:09:28;;;;;;;14.47;13.43;;;;;;;17.60;45.36;93177.56;5072260;28;20196;-87
2022/04/30 09:11:57;;;;;;;11.77;10.90;;;;;;;17.67;46.79;93178.97;5071220;28;20236;-91
2022/04/30 09:14:31;;;;;;;14.33;13.03;;;;;;;17.80;45.36;93204.50;5076989;28;20185;-82
2022/04/30 09:17:02;;;;;;;11.93;11.00;;;;;;;17.09;51.21;93197.72;5082603;28;20227;-88
2022/04/30 09:19:28;;;;;;;15.77;14.50;;;;;;;16.67;52.47;93204.31;5081074;28;20200;-86
2022/04/30 09:21:53;;;;;;;36.93;26.43;;;;;;;16.38;53.08;93192.59;5081512;28;20297;-80
2022/04/30 09:24:18;;;;;;;13.30;12.00;;;;;;;16.15;53.44;93181.28;5080323;28;20208;-80
2022/04/30 09:26:44;;;;;;;13.17;12.13;;;;;;;16.04;54.78;93196.53;5078404;28;20228;-94
2022/04/30 09:29:23;;;;;;;11.63;10.83;;;;;;;16.03;55.65;93199.47;5094025;28;20246;-82
2022/04/30 09:31:53;;;;;;;13.17;12.17;;;;;;;16.13;55.25;93199.22;5630655;22;20270;-80
2022/04/30 09:39:49;;;;;;;12.53;11.60;;;;;;;16.00;53.87;93157.88;5050270;28;20267;-78
2022/04/30 09:42:15;;;;;;;11.53;10.43;;;;;;;15.91;54.03;93196.53;5064925;28;20217;-85
2022/04/30 09:44:40;;;;;;;11.27;10.47;;;;;;;15.80;54.46;93185.47;5072519;28;20184;-89
2022/04/30 09:47:07;;;;;;;12.03;10.93;;;;;;;15.52;54.73;93167.34;5058350;28;20249;-84
2022/04/30 09:55:03;;;;;;;12.40;11.53;;;;;;;15.60;54.04;93179.84;5053615;28;20185;-83
2022/04/30 09:57:32;;;;;;;11.37;10.57;;;;;;;15.48;53.91;93179.56;5066072;28;20230;-88
2022/04/30 09:59:59;;;;;;;10.90;10.20;;;;;;;15.50;54.41;93169.53;5070994;28;20204;-81
2022/04/30 10:02:30;;;;;;;10.20;9.50;;;;;;;15.43;53.41;93155.97;5071540;28;20241;-81
2022/04/30 10:04:56;;;;;;;11.13;10.40;;;;;;;15.28;53.44;93178.09;5070299;28;20192;-79
2022/04/30 10:07:24;;;;;;;11.40;10.67;;;;;;;15.18;55.88;93170.38;5069106;28;20229;-80
2022/04/30 10:10:05;;;;;;;10.60;9.90;;;;;;;15.22;55.94;93167.94;5074542;28;20184;-79
2022/04/30 10:12:37;;;;;;;12.00;11.10;;;;;;;16.00;52.88;93173.69;5065048;28;20282;-82
2022/04/30 10:15:29;;;;;;;11.40;10.60;;;;;;;15.88;53.14;93120.78;5072634;28;20177;-81
2022/04/30 10:17:57;;;;;;;14.33;13.03;;;;;;;16.29;50.84;93163.56;5071762;28;20860;-91
2022/04/30 10:20:34;;;;;;;19.33;14.13;;;;;;;16.49;51.37;93165.75;5067461;28;20177;-91
2022/04/30 10:23:01;;;;;;;11.80;10.90;;;;;;;16.74;50.22;93161.69;5075002;28;20207;-83
2022/04/30 10:25:35;;;;;;;9.53;8.83;;;;;;;16.89;50.71;93143.63;5074483;28;20200;-87
2022/04/30 10:28:21;;;;;;;10.80;10.10;;;;;;;17.37;48.22;93160.25;5073639;28;20228;-87
2022/04/30 10:31:02;;;;;;;10.63;9.93;;;;;;;16.90;50.75;93144.41;5070204;28;20181;-89
2022/04/30 10:33:28;;;;;;;12.67;11.77;;;;;;;17.54;47.93;93152.41;5085104;28;20237;-84
2022/04/30 10:36:03;;;;;;;18.80;16.90;;;;;;;17.63;46.93;93151.66;5067669;28;20241;-81
2022/04/30 10:38:28;;;;;;;10.73;10.03;;;;;;;17.19;48.08;93149.94;5051312;28;20213;-80
2022/04/30 10:40:58;;;;;;;10.60;9.90;;;;;;;17.03;48.79;93154.84;5041858;28;20224;-90
2022/04/30 10:43:26;;;;;;;10.87;10.07;;;;;;;17.39;47.37;93149.38;5048719;28;20174;-85
2022/04/30 10:45:52;;;;;;;11.03;10.23;;;;;;;17.55;47.55;93134.72;5043841;28;20202;-85
2022/04/30 10:48:19;;;;;;;9.70;9.10;;;;;;;17.27;48.33;93128.88;5052106;28;20228;-83
2022/04/30 10:50:47;;;;;;;9.97;9.37;;;;;;;17.34;47.42;93129.19;5053031;28;20216;-85
2022/04/30 10:53:14;;;;;;;11.20;10.37;;;;;;;17.41;48.85;93134.81;5049063;28;20197;-94
2022/04/30 10:55:40;;;;;;;11.90;11.10;;;;;;;17.06;49.06;93137.63;5042307;28;20182;-86
2022/04/30 10:58:06;;;;;;;9.37;8.87;;;;;;;17.21;48.31;93119.50;5071380;28;20217;-79
2022/04/30 11:00:32;;;;;;;10.43;9.73;;;;;;;17.14;47.87;93142.16;5065700;28;20206;-88
2022/04/30 11:03:09;;;;;;;10.93;10.13;;;;;;;16.45;51.38;93140.28;5067124;28;20253;-86
2022/04/30 11:05:34;;;;;;;9.73;9.10;;;;;;;16.45;50.37;93140.28;5067300;28;20220;-81
2022/04/30 11:08:03;;;;;;;9.17;8.57;;;;;;;16.95;48.42;93147.69;5068572;28;20185;-74
2022/04/30 11:10:29;;;;;;;11.30;10.53;;;;;;;17.03;49.15;93139.03;5069720;28;20209;-79
2022/04/30 11:13:07;;;;;;;10.13;9.40;;;;;;;17.10;48.79;93128.81;5052288;28;20329;-81
2022/04/30 11:15:33;;;;;;;11.00;10.37;;;;;;;16.89;48.59;93138.34;5049019;28;20209;-84
2022/04/30 11:17:59;;;;;;;10.63;9.90;;;;;;;17.02;48.45;93147.25;5071466;28;20248;-76
2022/04/30 11:20:26;;;;;;;12.23;11.23;;;;;;;16.78;48.41;93141.56;5067072;28;20186;-83
2022/04/30 11:23:00;;;;;;;11.50;10.77;;;;;;;16.36;48.93;93134.16;5069401;28;20240;-81
2022/04/30 11:25:35;;;;;;;11.33;10.57;;;;;;;16.51;49.35;93144.34;5070318;28;20463;-80
2022/04/30 11:28:04;;;;;;;11.30;10.43;;;;;;;16.37;49.01;93131.22;5050221;28;20208;-79
2022/04/30 11:30:30;;;;;;;11.97;11.17;;;;;;;16.53;48.99;93142.94;5048571;28;20222;-83
2022/04/30 11:32:55;;;;;;;9.67;9.17;;;;;;;16.52;49.00;93146.69;5060750;28;20946;-81
2022/04/30 11:35:21;;;;;;;10.03;9.43;;;;;;;16.49;49.79;93142.00;5067468;28;20218;-80
2022/04/30 11:37:46;;;;;;;9.87;9.17;;;;;;;16.32;50.44;93135.81;5070249;28;20236;-81
2022/04/30 11:40:12;;;;;;;11.67;10.87;;;;;;;16.01;53.39;93139.19;5064025;28;20186;-81
2022/04/30 11:42:39;;;;;;;10.33;9.73;;;;;;;16.14;53.30;93145.44;5064868;28;20229;-82
2022/04/30 11:45:05;;;;;;;11.30;10.30;;;;;;;15.92;54.11;93140.94;5063410;28;20213;-82
2022/04/30 11:47:31;;;;;;;10.63;9.93;;;;;;;16.24;54.03;93137.31;5069478;28;20221;-81
2022/04/30 11:50:09;;;;;;;10.13;9.53;;;;;;;16.37;53.34;93136.50;5071601;28;20185;-82